createdAt,value
2017-12-08T00:00:44.371Z,37.4
2017-12-08T00:01:45.152Z,38.5
2017-12-08T00:02:45.871Z,40.3
2017-12-08T00:03:46.606Z,41.5
2017-12-08T00:04:47.342Z,39.9
2017-12-08T00:05:48.172Z,33.2
2017-12-08T00:06:48.918Z,44.3
2017-12-08T00:07:49.703Z,34.7
2017-12-08T00:08:50.428Z,35.5
2017-12-08T00:09:51.213Z,41.9
2017-12-08T00:10:51.944Z,44.1
2017-12-08T00:11:52.732Z,44.8
2017-12-08T00:12:53.521Z,43.5
2017-12-08T00:13:54.258Z,35.5
2017-12-08T00:14:55.030Z,40.0
2017-12-08T00:15:55.784Z,42.5
2017-12-08T00:16:56.587Z,40.6
2017-12-08T00:17:57.353Z,38.7
2017-12-08T00:18:58.077Z,37.4
2017-12-08T00:19:58.833Z,40.9
2017-12-08T00:20:59.562Z,42.8
2017-12-08T00:22:00.276Z,43.6
2017-12-08T00:23:00.993Z,50.4
2017-12-08T00:24:01.724Z,38.4
2017-12-08T00:25:02.512Z,36.1
2017-12-08T00:26:03.223Z,41.1
2017-12-08T00:27:03.941Z,37.0
2017-12-08T00:28:04.707Z,40.9
2017-12-08T00:29:05.431Z,39.1
2017-12-08T00:30:06.164Z,37.1
2017-12-08T00:31:06.951Z,37.1
2017-12-08T00:32:07.727Z,36.0
2017-12-08T00:33:08.497Z,41.4
2017-12-08T00:34:09.282Z,32.3
2017-12-08T00:35:10.012Z,39.0
2017-12-08T00:36:10.732Z,32.1
2017-12-08T00:37:11.452Z,33.6
2017-12-08T00:38:12.175Z,35.7
2017-12-08T00:39:12.893Z,35.3
2017-12-08T00:40:13.733Z,48.6
2017-12-08T00:41:14.453Z,29.1
2017-12-08T00:42:15.173Z,35.5
2017-12-08T00:43:15.892Z,33.4
2017-12-08T00:44:16.683Z,34.7
2017-12-08T00:45:17.417Z,35.2
2017-12-08T00:46:18.142Z,27.0
2017-12-08T00:47:18.929Z,37.9
2017-12-08T00:48:19.718Z,39.7
2017-12-08T00:49:20.437Z,34.6
2017-12-08T00:50:21.205Z,31.9
2017-12-08T00:51:22.003Z,43.9
2017-12-08T00:52:22.723Z,36.5
2017-12-08T00:53:23.444Z,34.6
2017-12-08T00:54:24.163Z,32.6
2017-12-08T00:55:24.892Z,37.8
2017-12-08T00:56:25.631Z,34.5
2017-12-08T00:57:26.428Z,42.5
2017-12-08T00:58:27.162Z,37.1
2017-12-08T00:59:27.945Z,32.0
2017-12-08T01:00:28.666Z,32.8
2017-12-08T01:01:29.391Z,30.4
2017-12-08T01:02:30.119Z,36.3
2017-12-08T01:03:30.901Z,31.8
2017-12-08T01:04:31.614Z,41.2
2017-12-08T01:05:32.324Z,28.0
2017-12-08T01:06:33.052Z,32.7
2017-12-08T01:07:33.844Z,37.1
2017-12-08T01:08:34.564Z,35.8
2017-12-08T01:09:35.360Z,38.1
2017-12-08T01:10:36.163Z,33.4
2017-12-08T01:11:36.892Z,32.2
2017-12-08T01:12:37.612Z,30.1
2017-12-08T01:13:38.343Z,32.5
2017-12-08T01:14:39.116Z,38.4
2017-12-08T01:15:39.893Z,35.5
2017-12-08T01:16:40.623Z,37.8
2017-12-08T01:17:41.341Z,43.6
2017-12-08T01:18:42.065Z,37.1
2017-12-08T01:19:42.797Z,36.9
2017-12-08T01:20:43.527Z,37.5
2017-12-08T01:21:44.312Z,36.6
2017-12-08T01:22:45.042Z,35.6
2017-12-08T01:23:45.832Z,33.6
2017-12-08T01:24:46.554Z,32.7
2017-12-08T01:25:47.331Z,31.2
2017-12-08T01:26:48.107Z,30.1
2017-12-08T01:27:48.823Z,34.3
2017-12-08T01:28:49.540Z,34.4
2017-12-08T01:29:50.326Z,39.9
2017-12-08T01:30:51.114Z,39.6
2017-12-08T01:31:51.883Z,41.1
2017-12-08T01:32:52.600Z,30.2
2017-12-08T01:33:53.317Z,39.0
2017-12-08T01:34:54.083Z,24.2
2017-12-08T01:35:54.806Z,28.2
2017-12-08T01:36:55.594Z,33.1
2017-12-08T01:37:56.394Z,29.1
2017-12-08T01:38:57.191Z,39.5
2017-12-08T01:39:57.981Z,29.8
2017-12-08T01:40:58.774Z,20.7
2017-12-08T01:41:59.493Z,25.1
2017-12-08T01:43:00.196Z,23.3
2017-12-08T01:44:00.917Z,26.7
2017-12-08T01:45:01.683Z,24.0
2017-12-08T01:46:02.400Z,33.5
2017-12-08T01:47:03.128Z,27.2
2017-12-08T01:48:03.913Z,36.1
2017-12-08T01:49:04.686Z,39.3
2017-12-08T01:50:05.443Z,26.8
2017-12-08T01:51:06.162Z,40.4
2017-12-08T01:52:06.893Z,28.6
2017-12-08T01:53:07.619Z,28.0
2017-12-08T01:54:08.383Z,31.0
2017-12-08T01:55:09.102Z,32.9
2017-12-08T01:56:09.827Z,36.4
2017-12-08T01:57:10.554Z,30.7
2017-12-08T01:58:11.280Z,34.5
2017-12-08T01:59:12.002Z,30.3
2017-12-08T02:00:12.723Z,30.9
2017-12-08T02:01:13.443Z,30.7
2017-12-08T02:02:14.162Z,34.9
2017-12-08T02:03:14.882Z,40.4
2017-12-08T02:04:15.593Z,30.6
2017-12-08T02:05:16.312Z,41.3
2017-12-08T02:06:17.066Z,33.6
2017-12-08T02:07:17.832Z,29.8
2017-12-08T02:08:18.599Z,30.9
2017-12-08T02:09:19.317Z,28.3
2017-12-08T02:10:20.114Z,32.2
2017-12-08T02:11:20.823Z,32.8
2017-12-08T02:12:21.536Z,36.2
2017-12-08T02:13:22.266Z,34.5
2017-12-08T02:14:23.024Z,29.4
2017-12-08T02:15:23.838Z,37.8
2017-12-08T02:16:24.562Z,39.2
2017-12-08T02:17:25.284Z,38.2
2017-12-08T02:18:26.121Z,29.6
2017-12-08T02:19:26.915Z,29.9
2017-12-08T02:20:27.640Z,29.4
2017-12-08T02:21:28.421Z,27.0
2017-12-08T02:22:29.221Z,25.7
2017-12-08T02:23:30.042Z,34.2
2017-12-08T02:24:30.794Z,29.0
2017-12-08T02:25:31.574Z,35.1
2017-12-08T02:26:32.306Z,28.8
2017-12-08T02:27:33.031Z,33.3
2017-12-08T02:28:33.806Z,26.6
2017-12-08T02:29:34.523Z,38.7
2017-12-08T02:30:35.243Z,28.5
2017-12-08T02:31:35.966Z,32.1
2017-12-08T02:32:36.693Z,25.1
2017-12-08T02:33:37.542Z,32.1
2017-12-08T02:34:38.269Z,35.5
2017-12-08T02:35:39.043Z,32.8
2017-12-08T02:36:39.774Z,30.5
2017-12-08T02:37:40.563Z,27.1
2017-12-08T02:38:41.332Z,25.7
2017-12-08T02:39:42.039Z,22.0
2017-12-08T02:40:42.763Z,23.8
2017-12-08T02:41:43.486Z,26.6
2017-12-08T02:42:44.283Z,28.9
2017-12-08T02:43:44.993Z,28.8
2017-12-08T02:44:45.715Z,29.0
2017-12-08T02:45:46.433Z,29.3
2017-12-08T02:46:47.163Z,25.5
2017-12-08T02:47:47.880Z,25.1
2017-12-08T02:48:48.597Z,29.3
2017-12-08T02:49:49.371Z,30.7
2017-12-08T02:50:50.099Z,24.5
2017-12-08T02:51:50.882Z,22.9
2017-12-08T02:52:51.692Z,34.8
2017-12-08T02:53:52.457Z,26.9
2017-12-08T02:54:53.180Z,21.8
2017-12-08T02:55:53.905Z,26.9
2017-12-08T02:56:54.697Z,25.3
2017-12-08T02:57:55.472Z,28.6
2017-12-08T02:58:56.243Z,19.7
2017-12-08T02:59:57.005Z,25.7
2017-12-08T03:00:57.734Z,23.3
2017-12-08T03:01:58.515Z,23.3
2017-12-08T03:02:59.310Z,29.3
2017-12-08T03:04:00.092Z,24.0
2017-12-08T03:05:00.865Z,23.2
2017-12-08T03:06:01.646Z,19.7
2017-12-08T03:07:02.422Z,26.5
2017-12-08T03:08:03.153Z,29.5
2017-12-08T03:09:03.894Z,30.9
2017-12-08T03:10:04.685Z,26.8
2017-12-08T03:11:05.480Z,27.3
2017-12-08T03:12:06.282Z,24.8
2017-12-08T03:13:07.005Z,31.2
2017-12-08T03:14:07.796Z,25.4
2017-12-08T03:15:08.571Z,32.0
2017-12-08T03:16:09.289Z,27.0
2017-12-08T03:17:10.017Z,34.7
2017-12-08T03:18:10.732Z,31.8
2017-12-08T03:19:11.464Z,31.7
2017-12-08T03:20:12.254Z,34.3
2017-12-08T03:21:13.043Z,21.4
2017-12-08T03:22:13.779Z,30.3
2017-12-08T03:23:14.533Z,34.9
2017-12-08T03:24:15.334Z,32.0
2017-12-08T03:25:16.123Z,29.8
2017-12-08T03:26:16.864Z,36.0
2017-12-08T03:27:17.636Z,22.8
2017-12-08T03:28:18.414Z,26.3
2017-12-08T03:29:19.205Z,33.3
2017-12-08T03:30:20.004Z,26.6
2017-12-08T03:31:20.714Z,24.8
2017-12-08T03:32:21.444Z,28.4
2017-12-08T03:33:22.204Z,21.8
2017-12-08T03:34:22.920Z,36.5
2017-12-08T03:35:23.656Z,24.8
2017-12-08T03:36:24.360Z,28.8
2017-12-08T03:37:25.210Z,39.2
2017-12-08T03:38:25.928Z,23.0
2017-12-08T03:39:26.644Z,21.1
2017-12-08T03:40:27.440Z,30.6
2017-12-08T03:41:28.240Z,28.3
2017-12-08T03:42:29.010Z,35.2
2017-12-08T03:43:29.819Z,27.8
2017-12-08T03:44:30.527Z,26.1
2017-12-08T03:45:31.245Z,25.4
2017-12-08T03:46:31.969Z,25.7
2017-12-08T03:47:32.688Z,30.2
2017-12-08T03:48:33.405Z,32.5
2017-12-08T03:49:34.128Z,18.0
2017-12-08T03:50:34.859Z,32.8
2017-12-08T03:51:35.590Z,24.3
2017-12-08T03:52:36.422Z,26.7
2017-12-08T03:53:37.146Z,25.9
2017-12-08T03:54:37.852Z,18.9
2017-12-08T03:55:38.572Z,28.3
2017-12-08T03:56:39.283Z,25.0
2017-12-08T03:57:40.006Z,32.3
2017-12-08T03:58:40.796Z,27.2
2017-12-08T03:59:41.512Z,24.7
2017-12-08T04:00:42.246Z,26.8
2017-12-08T04:01:42.954Z,34.0
2017-12-08T04:02:43.673Z,22.4
2017-12-08T04:03:44.392Z,29.9
2017-12-08T04:04:45.105Z,22.0
2017-12-08T04:05:45.812Z,23.6
2017-12-08T04:06:46.531Z,18.2
2017-12-08T04:07:47.257Z,25.4
2017-12-08T04:08:48.092Z,18.4
2017-12-08T04:09:48.827Z,21.8
2017-12-08T04:10:49.544Z,20.7
2017-12-08T04:11:50.345Z,26.0
2017-12-08T04:12:51.134Z,21.7
2017-12-08T04:13:51.850Z,30.4
2017-12-08T04:14:52.563Z,20.0
2017-12-08T04:15:53.292Z,22.8
2017-12-08T04:16:54.014Z,23.2
2017-12-08T04:17:54.739Z,25.6
2017-12-08T04:18:55.462Z,22.7
2017-12-08T04:19:56.186Z,26.6
2017-12-08T04:20:56.856Z,35.1
2017-12-08T04:21:57.670Z,20.1
2017-12-08T04:22:58.462Z,22.7
2017-12-08T04:23:59.202Z,25.3
2017-12-08T04:24:59.934Z,21.4
2017-12-08T04:26:00.732Z,22.8
2017-12-08T04:27:01.503Z,18.1
2017-12-08T04:28:02.283Z,22.9
2017-12-08T04:29:03.008Z,22.5
2017-12-08T04:30:03.739Z,22.3
2017-12-08T04:31:04.493Z,23.6
2017-12-08T04:32:05.223Z,30.7
2017-12-08T04:33:05.944Z,25.2
2017-12-08T04:34:06.734Z,19.3
2017-12-08T04:35:07.513Z,27.5
2017-12-08T04:36:08.298Z,23.1
2017-12-08T04:37:09.085Z,31.5
2017-12-08T04:38:09.857Z,25.8
2017-12-08T04:39:10.565Z,30.7
2017-12-08T04:40:11.283Z,23.1
2017-12-08T04:41:12.002Z,27.6
2017-12-08T04:42:12.733Z,20.9
2017-12-08T04:43:13.462Z,28.9
2017-12-08T04:44:14.183Z,24.9
2017-12-08T04:45:14.912Z,20.0
2017-12-08T04:46:15.689Z,22.9
2017-12-08T04:47:16.502Z,21.2
2017-12-08T04:48:17.227Z,23.6
2017-12-08T04:49:18.002Z,27.1
2017-12-08T04:50:18.801Z,19.4
2017-12-08T04:51:19.566Z,25.2
2017-12-08T04:52:20.334Z,17.3
2017-12-08T04:53:21.140Z,21.3
2017-12-08T04:54:21.872Z,17.0
2017-12-08T04:55:22.594Z,28.5
2017-12-08T04:56:23.373Z,17.2
2017-12-08T04:57:24.092Z,29.0
2017-12-08T04:58:24.810Z,25.6
2017-12-08T04:59:25.615Z,17.9
2017-12-08T05:00:26.363Z,10.8
2017-12-08T05:01:27.132Z,22.0
2017-12-08T05:02:27.853Z,12.2
2017-12-08T05:03:28.575Z,25.0
2017-12-08T05:04:29.344Z,21.5
2017-12-08T05:05:30.067Z,20.0
2017-12-08T05:06:30.823Z,17.9
2017-12-08T05:07:31.662Z,25.1
2017-12-08T05:08:32.391Z,22.8
2017-12-08T05:09:33.122Z,22.2
2017-12-08T05:10:33.835Z,16.8
2017-12-08T05:11:34.554Z,16.1
2017-12-08T05:12:35.326Z,21.8
2017-12-08T05:13:36.090Z,19.9
2017-12-08T05:14:36.863Z,19.3
2017-12-08T05:15:37.692Z,16.3
2017-12-08T05:16:38.482Z,18.0
2017-12-08T05:17:39.191Z,18.6
2017-12-08T05:18:39.922Z,23.0
2017-12-08T05:19:40.653Z,17.3
2017-12-08T05:20:41.359Z,18.8
2017-12-08T05:21:42.093Z,13.6
2017-12-08T05:22:42.912Z,19.8
2017-12-08T05:23:43.631Z,15.0
2017-12-08T05:24:44.355Z,23.2
2017-12-08T05:25:45.151Z,17.1
2017-12-08T05:26:45.871Z,23.7
2017-12-08T05:27:46.641Z,15.3
2017-12-08T05:28:47.361Z,15.4
2017-12-08T05:29:48.082Z,11.9
2017-12-08T05:30:48.804Z,20.2
2017-12-08T05:31:49.537Z,23.2
2017-12-08T05:32:50.311Z,15.1
2017-12-08T05:33:51.041Z,22.6
2017-12-08T05:34:51.833Z,15.0
2017-12-08T05:35:52.618Z,22.8
2017-12-08T05:36:53.342Z,21.4
2017-12-08T05:37:54.112Z,14.2
2017-12-08T05:38:54.827Z,20.2
2017-12-08T05:39:55.600Z,11.8
2017-12-08T05:40:56.322Z,15.5
2017-12-08T05:41:57.059Z,17.8
2017-12-08T05:42:57.821Z,20.3
2017-12-08T05:43:58.551Z,13.0
2017-12-08T05:44:59.270Z,15.2
2017-12-08T05:45:59.998Z,16.5
2017-12-08T05:47:00.794Z,17.4
2017-12-08T05:48:01.552Z,14.2
2017-12-08T05:49:02.263Z,13.2
2017-12-08T05:50:02.981Z,17.2
2017-12-08T05:51:03.692Z,14.1
2017-12-08T05:52:04.491Z,13.3
2017-12-08T05:53:05.227Z,23.2
2017-12-08T05:54:05.994Z,14.2
2017-12-08T05:55:06.765Z,16.5
2017-12-08T05:56:07.486Z,12.1
2017-12-08T05:57:08.299Z,8.9
2017-12-08T05:58:09.099Z,7.0
2017-12-08T05:59:09.882Z,12.6
2017-12-08T06:00:10.614Z,7.9
2017-12-08T06:01:11.331Z,10.9
2017-12-08T06:02:12.102Z,18.4
2017-12-08T06:03:12.822Z,15.2
2017-12-08T06:04:13.542Z,10.4
2017-12-08T06:05:14.272Z,7.9
2017-12-08T06:06:15.010Z,16.6
2017-12-08T06:07:15.832Z,13.8
2017-12-08T06:08:16.553Z,13.9
2017-12-08T06:09:17.271Z,12.2
2017-12-08T06:10:17.993Z,14.5
2017-12-08T06:11:18.712Z,14.1
2017-12-08T06:12:19.433Z,11.7
2017-12-08T06:13:20.136Z,18.9
2017-12-08T06:14:20.984Z,13.2
2017-12-08T06:15:21.742Z,14.2
2017-12-08T06:16:22.468Z,9.6
2017-12-08T06:17:23.195Z,11.9
2017-12-08T06:18:23.906Z,11.8
2017-12-08T06:19:24.685Z,11.4
2017-12-08T06:20:25.462Z,9.9
2017-12-08T06:21:26.172Z,11.9
2017-12-08T06:22:26.882Z,15.1
2017-12-08T06:23:27.601Z,17.1
2017-12-08T06:24:28.312Z,12.8
2017-12-08T06:25:29.074Z,8.5
2017-12-08T06:26:29.886Z,9.3
2017-12-08T06:27:30.666Z,16.5
2017-12-08T06:28:31.388Z,10.1
2017-12-08T06:29:32.168Z,11.9
2017-12-08T06:30:32.982Z,17.9
2017-12-08T06:31:33.714Z,10.3
2017-12-08T06:32:34.426Z,13.3
2017-12-08T06:33:35.154Z,17.5
2017-12-08T06:34:35.971Z,9.2
2017-12-08T06:35:36.832Z,16.2
2017-12-08T06:36:37.551Z,13.4
2017-12-08T06:37:38.281Z,10.2
2017-12-08T06:38:38.996Z,11.7
2017-12-08T06:39:39.784Z,9.5
2017-12-08T06:40:40.517Z,9.7
2017-12-08T06:41:41.324Z,10.1
2017-12-08T06:42:42.123Z,12.6
2017-12-08T06:43:42.956Z,12.5
2017-12-08T06:44:43.616Z,10.0
2017-12-08T06:45:44.334Z,13.5
2017-12-08T06:46:45.134Z,9.9
2017-12-08T06:47:45.853Z,14.4
2017-12-08T06:48:46.582Z,11.4
2017-12-08T06:49:47.309Z,14.0
2017-12-08T06:50:48.070Z,11.6
2017-12-08T06:51:48.791Z,13.3
2017-12-08T06:52:49.501Z,15.8
2017-12-08T06:53:50.221Z,7.6
2017-12-08T06:54:50.944Z,13.5
2017-12-08T06:55:51.708Z,13.2
2017-12-08T06:56:52.493Z,11.5
2017-12-08T06:57:53.291Z,13.2
2017-12-08T06:58:54.057Z,9.5
2017-12-08T06:59:54.793Z,16.8
2017-12-08T07:00:55.452Z,17.3
2017-12-08T07:01:56.170Z,14.9
2017-12-08T07:02:56.885Z,13.0
2017-12-08T07:03:57.613Z,14.2
2017-12-08T07:04:58.362Z,16.6
2017-12-08T07:05:59.093Z,17.1
2017-12-08T07:06:59.882Z,12.6
2017-12-08T07:08:00.606Z,22.1
2017-12-08T07:09:01.382Z,10.9
2017-12-08T07:10:02.102Z,13.9
2017-12-08T07:11:02.873Z,13.3
2017-12-08T07:12:03.553Z,15.2
2017-12-08T07:13:04.272Z,16.6
2017-12-08T07:14:04.992Z,25.4
2017-12-08T07:15:05.712Z,14.0
2017-12-08T07:16:06.435Z,20.7
2017-12-08T07:17:07.163Z,17.8
2017-12-08T07:18:07.941Z,12.3
2017-12-08T07:19:08.753Z,15.7
2017-12-08T07:20:09.516Z,13.0
2017-12-08T07:21:10.282Z,17.0
2017-12-08T07:22:11.016Z,11.8
2017-12-08T07:23:11.784Z,10.5
2017-12-08T07:24:12.578Z,14.0
2017-12-08T07:25:13.350Z,14.6
2017-12-08T07:26:14.063Z,13.4
2017-12-08T07:27:14.777Z,23.3
2017-12-08T07:28:15.502Z,18.0
2017-12-08T07:29:16.224Z,13.8
2017-12-08T07:30:16.943Z,16.7
2017-12-08T07:31:17.671Z,30.8
2017-12-08T07:32:18.402Z,9.7
2017-12-08T07:33:19.122Z,13.1
2017-12-08T07:34:19.841Z,18.0
2017-12-08T07:35:20.565Z,15.1
2017-12-08T07:36:21.282Z,7.9
2017-12-08T07:37:22.002Z,10.9
2017-12-08T07:38:22.722Z,17.6
2017-12-08T07:39:23.445Z,14.4
2017-12-08T07:40:24.247Z,15.9
2017-12-08T07:41:25.017Z,15.6
2017-12-08T07:42:25.816Z,16.0
2017-12-08T07:43:26.586Z,16.4
2017-12-08T07:44:27.384Z,20.4
2017-12-08T07:45:28.172Z,12.6
2017-12-08T07:46:28.893Z,15.2
2017-12-08T07:47:29.705Z,11.8
2017-12-08T07:48:30.422Z,11.0
2017-12-08T07:49:31.143Z,16.5
2017-12-08T07:50:31.994Z,13.9
2017-12-08T07:51:32.792Z,9.9
2017-12-08T07:52:33.522Z,13.2
2017-12-08T07:53:34.310Z,19.8
2017-12-08T07:54:35.033Z,12.9
2017-12-08T07:55:35.754Z,16.7
2017-12-08T07:56:36.553Z,10.5
2017-12-08T07:57:37.282Z,19.2
2017-12-08T07:58:38.004Z,10.5
2017-12-08T07:59:38.733Z,24.9
2017-12-08T08:00:39.466Z,17.6
2017-12-08T08:01:40.184Z,16.0
2017-12-08T08:02:41.033Z,14.0
2017-12-08T08:03:41.771Z,15.6
2017-12-08T08:04:42.563Z,17.0
2017-12-08T08:05:43.288Z,15.7
2017-12-08T08:06:44.003Z,12.0
2017-12-08T08:07:44.774Z,18.6
2017-12-08T08:08:45.509Z,16.2
2017-12-08T08:09:46.224Z,12.3
2017-12-08T08:10:46.952Z,12.9
2017-12-08T08:11:47.684Z,15.7
2017-12-08T08:12:48.522Z,15.3
2017-12-08T08:13:49.242Z,14.0
2017-12-08T08:14:49.972Z,9.5
2017-12-08T08:15:50.716Z,12.4
2017-12-08T08:16:51.517Z,9.7
2017-12-08T08:17:52.316Z,10.6
2017-12-08T08:18:53.042Z,15.2
2017-12-08T08:19:53.762Z,13.1
2017-12-08T08:20:54.492Z,14.9
2017-12-08T08:21:55.231Z,8.5
2017-12-08T08:22:56.013Z,9.9
2017-12-08T08:23:56.734Z,12.3
2017-12-08T08:24:57.576Z,16.4
2017-12-08T08:25:58.357Z,10.9
2017-12-08T08:26:59.143Z,13.5
2017-12-08T08:27:59.859Z,11.8
2017-12-08T08:29:00.583Z,12.6
2017-12-08T08:30:01.303Z,14.5
2017-12-08T08:31:02.084Z,15.0
2017-12-08T08:32:02.893Z,9.3
2017-12-08T08:33:03.621Z,11.1
2017-12-08T08:34:04.349Z,11.5
2017-12-08T08:35:05.073Z,18.3
2017-12-08T08:36:05.853Z,23.2
2017-12-08T08:37:06.666Z,12.4
2017-12-08T08:38:07.422Z,11.2
2017-12-08T08:40:07.833Z,11.4
2017-12-08T08:41:08.563Z,23.5
2017-12-08T08:42:09.292Z,9.9
2017-12-08T08:43:10.012Z,9.0
2017-12-08T08:44:10.737Z,13.0
2017-12-08T08:45:11.502Z,21.2
2017-12-08T08:46:12.279Z,13.2
2017-12-08T08:47:13.066Z,11.7
2017-12-08T08:48:13.840Z,13.2
2017-12-08T08:49:14.603Z,15.5
2017-12-08T08:50:15.337Z,14.3
2017-12-08T08:51:16.133Z,10.1
2017-12-08T08:52:16.861Z,16.6
2017-12-08T08:53:17.604Z,14.3
2017-12-08T08:54:18.375Z,17.5
2017-12-08T08:55:19.183Z,13.5
2017-12-08T08:56:19.905Z,13.8
2017-12-08T08:57:20.685Z,16.3
2017-12-08T08:58:21.413Z,12.4
2017-12-08T08:59:22.203Z,17.0
2017-12-08T09:00:22.922Z,11.2
2017-12-08T09:01:23.642Z,11.8
2017-12-08T09:02:24.366Z,16.7
2017-12-08T09:03:25.141Z,11.6
2017-12-08T09:04:25.871Z,11.9
2017-12-08T09:05:26.663Z,13.2
2017-12-08T09:06:27.453Z,9.4
2017-12-08T09:07:28.174Z,11.3
2017-12-08T09:08:28.989Z,15.8
2017-12-08T09:09:29.712Z,11.5
2017-12-08T09:10:30.528Z,16.8
2017-12-08T09:11:31.247Z,18.9
2017-12-08T09:12:31.973Z,12.1
2017-12-08T09:13:32.703Z,11.9
2017-12-08T09:14:33.443Z,20.1
2017-12-08T09:15:34.223Z,16.0
2017-12-08T09:16:35.043Z,15.9
2017-12-08T09:17:35.849Z,11.1
2017-12-08T09:18:36.525Z,21.0
2017-12-08T09:19:37.295Z,14.0
2017-12-08T09:20:38.019Z,16.8
2017-12-08T09:21:38.792Z,18.9
2017-12-08T09:22:39.518Z,23.1
2017-12-08T09:23:40.250Z,12.0
2017-12-08T09:24:41.028Z,10.8
2017-12-08T09:25:41.753Z,15.8
2017-12-08T09:26:42.474Z,12.3
2017-12-08T09:27:43.264Z,14.1
2017-12-08T09:28:43.982Z,9.1
2017-12-08T09:29:44.773Z,10.3
2017-12-08T09:30:45.504Z,19.5
2017-12-08T09:31:46.295Z,13.2
2017-12-08T09:32:47.095Z,13.6
2017-12-08T09:33:47.817Z,14.9
2017-12-08T09:34:48.536Z,18.4
2017-12-08T09:35:49.263Z,14.8
2017-12-08T09:36:49.992Z,13.6
2017-12-08T09:37:50.727Z,12.4
2017-12-08T09:38:51.502Z,15.4
2017-12-08T09:39:52.236Z,15.4
2017-12-08T09:40:52.991Z,15.7
2017-12-08T09:41:53.714Z,17.7
2017-12-08T09:42:54.441Z,10.1
2017-12-08T09:43:55.280Z,20.5
2017-12-08T09:44:56.077Z,17.5
2017-12-08T09:45:56.816Z,17.9
2017-12-08T09:46:57.568Z,16.9
2017-12-08T09:47:58.282Z,11.4
2017-12-08T09:48:59.053Z,16.5
2017-12-08T09:49:59.843Z,18.1
2017-12-08T09:51:00.573Z,15.4
2017-12-08T09:52:01.297Z,15.8
2017-12-08T09:53:02.017Z,11.7
2017-12-08T09:54:02.868Z,15.8
2017-12-08T09:55:03.592Z,16.9
2017-12-08T09:56:04.381Z,14.4
2017-12-08T09:57:05.171Z,10.9
2017-12-08T09:58:05.948Z,14.6
2017-12-08T09:59:06.731Z,8.7
2017-12-08T10:00:07.458Z,12.4
2017-12-08T10:01:08.224Z,16.0
2017-12-08T10:02:09.027Z,10.5
2017-12-08T10:03:09.807Z,20.3
2017-12-08T10:04:10.532Z,19.2
2017-12-08T10:05:11.311Z,15.3
2017-12-08T10:06:12.033Z,15.3
2017-12-08T10:07:12.778Z,19.0
2017-12-08T10:08:13.572Z,14.0
2017-12-08T10:09:14.367Z,20.7
2017-12-08T10:10:15.168Z,16.5
2017-12-08T10:11:15.942Z,18.6
2017-12-08T10:12:16.672Z,23.1
2017-12-08T10:13:17.445Z,26.8
2017-12-08T10:14:18.252Z,18.2
2017-12-08T10:15:18.978Z,22.0
2017-12-08T10:16:19.778Z,18.7
2017-12-08T10:17:20.627Z,21.6
2017-12-08T10:18:21.413Z,17.0
2017-12-08T10:19:22.137Z,16.8
2017-12-08T10:20:22.861Z,23.5
2017-12-08T10:21:23.586Z,23.0
2017-12-08T10:22:24.365Z,21.0
2017-12-08T10:23:25.160Z,22.6
2017-12-08T10:24:25.964Z,26.5
2017-12-08T10:25:26.751Z,22.6
2017-12-08T10:26:27.474Z,22.0
2017-12-08T10:27:28.246Z,24.0
2017-12-08T10:28:29.012Z,15.7
2017-12-08T10:29:29.739Z,19.7
2017-12-08T10:30:30.462Z,19.6
2017-12-08T10:31:31.208Z,20.8
2017-12-08T10:32:31.971Z,14.6
2017-12-08T10:33:32.763Z,17.4
2017-12-08T10:34:33.552Z,21.5
2017-12-08T10:35:34.340Z,19.4
2017-12-08T10:36:35.087Z,20.0
2017-12-08T10:37:35.872Z,20.1
2017-12-08T10:38:36.592Z,16.8
2017-12-08T10:39:37.321Z,17.4
2017-12-08T10:40:38.048Z,22.0
2017-12-08T10:41:38.834Z,13.8
2017-12-08T10:42:39.603Z,13.6
2017-12-08T10:43:40.402Z,21.3
2017-12-08T10:44:41.128Z,19.7
2017-12-08T10:45:41.869Z,14.5
2017-12-08T10:46:42.587Z,16.4
2017-12-08T10:47:43.417Z,18.3
2017-12-08T10:48:44.144Z,16.0
2017-12-08T10:49:44.946Z,18.1
2017-12-08T10:50:45.733Z,15.5
2017-12-08T10:51:46.532Z,27.1
2017-12-08T10:52:47.317Z,15.0
2017-12-08T10:53:48.118Z,18.2
2017-12-08T10:54:48.898Z,17.4
2017-12-08T10:55:49.693Z,14.0
2017-12-08T10:56:50.412Z,16.5
2017-12-08T10:57:51.183Z,15.7
2017-12-08T10:58:51.902Z,16.0
2017-12-08T10:59:52.629Z,16.7
2017-12-08T11:00:53.435Z,14.5
2017-12-08T11:01:54.222Z,13.7
2017-12-08T11:02:54.953Z,13.6
2017-12-08T11:03:55.669Z,14.9
2017-12-08T11:04:56.462Z,15.7
2017-12-08T11:05:57.233Z,14.9
2017-12-08T11:06:58.034Z,16.9
2017-12-08T11:07:58.838Z,16.8
2017-12-08T11:08:59.634Z,17.0
2017-12-08T11:10:00.441Z,12.4
2017-12-08T11:11:01.213Z,15.2
2017-12-08T11:12:01.952Z,21.6
2017-12-08T11:13:02.678Z,18.9
2017-12-08T11:14:03.412Z,18.6
2017-12-08T11:15:04.174Z,15.7
2017-12-08T11:16:05.016Z,21.6
2017-12-08T11:17:05.814Z,20.8
2017-12-08T11:18:06.592Z,15.1
2017-12-08T11:19:07.317Z,18.1
2017-12-08T11:20:08.042Z,16.9
2017-12-08T11:21:08.762Z,17.9
2017-12-08T11:22:09.564Z,20.6
2017-12-08T11:23:10.322Z,23.0
2017-12-08T11:24:11.056Z,16.3
2017-12-08T11:25:11.820Z,17.0
2017-12-08T11:26:12.542Z,16.7
2017-12-08T11:27:13.313Z,17.8
2017-12-08T11:28:14.044Z,19.9
2017-12-08T11:29:14.842Z,27.1
2017-12-08T11:30:15.558Z,20.3
2017-12-08T11:31:16.372Z,18.2
2017-12-08T11:32:17.149Z,18.8
2017-12-08T11:33:17.945Z,18.8
2017-12-08T11:34:18.684Z,16.6
2017-12-08T11:35:19.441Z,21.5
2017-12-08T11:36:20.213Z,21.9
2017-12-08T11:37:20.988Z,26.0
2017-12-08T11:38:21.811Z,21.4
2017-12-08T11:39:22.446Z,23.2
2017-12-08T11:40:23.213Z,20.3
2017-12-08T11:41:23.932Z,18.3
2017-12-08T11:42:24.654Z,19.2
2017-12-08T11:43:25.465Z,24.3
2017-12-08T11:44:26.184Z,27.7
2017-12-08T11:45:26.992Z,22.3
2017-12-08T11:46:27.718Z,21.7
2017-12-08T11:47:28.442Z,22.0
2017-12-08T11:48:29.173Z,16.7
2017-12-08T11:49:29.891Z,17.8
2017-12-08T11:50:30.617Z,16.5
2017-12-08T11:51:31.396Z,18.5
2017-12-08T11:52:32.191Z,17.7
2017-12-08T11:53:32.995Z,15.9
2017-12-08T11:54:33.787Z,13.4
2017-12-08T11:55:34.582Z,15.0
2017-12-08T11:56:35.304Z,17.9
2017-12-08T11:57:36.123Z,12.8
2017-12-08T11:58:36.923Z,13.0
2017-12-08T11:59:37.642Z,13.1
2017-12-08T12:00:38.373Z,11.9
2017-12-08T12:01:39.162Z,18.5
2017-12-08T12:02:39.901Z,18.0
2017-12-08T12:03:40.665Z,14.7
2017-12-08T12:04:41.473Z,12.1
2017-12-08T12:05:42.282Z,14.7
2017-12-08T12:06:43.023Z,12.5
2017-12-08T12:07:43.783Z,14.5
2017-12-08T12:08:44.560Z,16.8
2017-12-08T12:09:45.367Z,14.0
2017-12-08T12:10:46.164Z,15.9
2017-12-08T12:11:46.960Z,16.5
2017-12-08T12:12:47.683Z,14.5
2017-12-08T12:13:48.461Z,12.8
2017-12-08T12:14:49.256Z,13.1
2017-12-08T12:15:49.987Z,14.1
2017-12-08T12:16:50.778Z,12.7
2017-12-08T12:17:51.567Z,17.1
2017-12-08T12:18:52.343Z,12.3
2017-12-08T12:19:53.074Z,16.0
2017-12-08T12:20:53.863Z,13.0
2017-12-08T12:21:54.580Z,11.3
2017-12-08T12:22:55.314Z,12.6
2017-12-08T12:23:56.033Z,13.9
2017-12-08T12:24:56.856Z,13.4
2017-12-08T12:25:57.666Z,14.4
2017-12-08T12:26:58.381Z,13.7
2017-12-08T12:27:59.103Z,14.5
2017-12-08T12:28:59.832Z,14.2
2017-12-08T12:30:00.563Z,15.1
2017-12-08T12:31:01.283Z,14.4
2017-12-08T12:32:02.007Z,14.0
2017-12-08T12:33:02.814Z,16.2
2017-12-08T12:34:03.584Z,14.9
2017-12-08T12:35:04.393Z,14.5
2017-12-08T12:36:05.231Z,15.9
2017-12-08T12:37:05.942Z,15.0
2017-12-08T12:38:06.661Z,15.3
2017-12-08T12:39:07.395Z,16.0
2017-12-08T12:40:08.124Z,16.8
2017-12-08T12:41:08.962Z,17.1
2017-12-08T12:42:09.694Z,16.8
2017-12-08T12:43:10.493Z,17.0
2017-12-08T12:44:11.282Z,17.5
2017-12-08T12:45:12.096Z,19.3
2017-12-08T12:46:12.871Z,17.6
2017-12-08T12:47:13.592Z,18.0
2017-12-08T12:48:14.312Z,18.2
2017-12-08T12:49:15.046Z,19.2
2017-12-08T12:50:15.832Z,20.6
2017-12-08T12:51:16.612Z,19.2
2017-12-08T12:52:17.388Z,19.2
2017-12-08T12:53:18.193Z,19.4
2017-12-08T12:54:18.991Z,19.8
2017-12-08T12:55:19.709Z,23.8
2017-12-08T12:56:20.514Z,20.2
2017-12-08T12:57:21.263Z,20.4
2017-12-08T12:58:22.167Z,22.0
2017-12-08T12:59:22.952Z,21.7
2017-12-08T13:00:23.679Z,25.1
2017-12-08T13:01:25.114Z,26.3
2017-12-08T13:02:25.970Z,21.7
2017-12-08T13:03:27.024Z,23.5
2017-12-08T13:04:27.822Z,25.9
2017-12-08T13:05:28.550Z,23.1
2017-12-08T13:06:29.332Z,21.0
2017-12-08T13:07:30.159Z,27.0
2017-12-08T13:08:30.967Z,24.8
2017-12-08T13:09:32.061Z,22.0
2017-12-08T13:10:32.906Z,20.8
2017-12-08T13:11:33.639Z,20.8
2017-12-08T13:12:34.372Z,21.6
2017-12-08T13:13:35.559Z,19.0
2017-12-08T13:14:36.228Z,19.8
2017-12-08T13:15:36.952Z,17.3
2017-12-08T13:16:37.676Z,15.5
2017-12-08T13:17:38.502Z,14.2
2017-12-08T13:18:39.235Z,12.8
2017-12-08T13:19:39.943Z,14.8
2017-12-08T13:20:40.662Z,13.6
2017-12-08T13:21:41.389Z,12.0
2017-12-08T13:22:42.123Z,12.9
2017-12-08T13:23:42.836Z,12.3
2017-12-08T13:24:43.562Z,11.1
2017-12-08T13:25:44.274Z,10.9
2017-12-08T13:26:44.993Z,10.8
2017-12-08T13:27:45.782Z,9.5
2017-12-08T13:28:46.507Z,9.3
2017-12-08T13:29:47.291Z,10.9
2017-12-08T13:30:48.006Z,9.0